Time;durP1;ratioP1;P1;durP2;ratioP2;P2;SDS_P1;SDS_P2;PMS_P1;PMS_P2;Temp;Humidity;BMP_temperature;BMP_pressure;BME280_temperature;BME280_humidity;BME280_pressure;Samples;Min_cycle;Max_cycle;Signal;HPM_P1;HPM_P2
2024/01/23 00:01:03;;;;;;;22.75;1.33;;;;;;;2.94;72.22;98702.66;5018548;28;20144;-79
2024/01/23 00:03:31;;;;;;;24.55;1.23;;;;;;;2.92;72.24;98699.28;5021388;28;20046;-79
2024/01/23 00:05:58;;;;;;;15.20;1.42;;;;;;;2.86;72.14;98678.75;5021834;28;20076;-79
2024/01/23 00:08:25;;;;;;;17.40;1.30;;;;;;;2.91;72.18;98689.00;5026325;28;20579;-79
2024/01/23 00:10:52;;;;;;;18.73;1.20;;;;;;;2.92;72.24;98703.59;5016084;28;20145;-79
2024/01/23 00:13:19;;;;;;;12.82;1.02;;;;;;;2.90;72.17;98701.06;5023373;28;20560;-79
2024/01/23 00:15:47;;;;;;;14.88;0.93;;;;;;;2.90;72.06;98708.81;5024669;28;20045;-78
2024/01/23 00:18:14;;;;;;;19.17;1.42;;;;;;;2.90;72.10;98705.34;5028716;28;20099;-79
2024/01/23 00:20:41;;;;;;;13.50;0.80;;;;;;;2.87;72.27;98697.69;5022888;28;20042;-77
2024/01/23 00:23:08;;;;;;;22.75;2.15;;;;;;;2.88;71.86;98699.41;5023220;28;20132;-79
2024/01/23 00:25:35;;;;;;;16.92;1.33;;;;;;;2.88;72.29;98697.66;5020781;28;20077;-78
2024/01/23 00:28:03;;;;;;;16.13;1.58;;;;;;;2.87;72.04;98708.88;5019937;28;20077;-79
2024/01/23 00:30:30;;;;;;;13.85;1.17;;;;;;;2.87;72.11;98710.59;5014586;28;20057;-79
2024/01/23 00:32:59;;;;;;;14.77;1.58;;;;;;;2.76;72.24;98703.97;5029382;28;20049;-79
2024/01/23 00:35:26;;;;;;;17.80;1.65;;;;;;;2.86;72.17;98714.06;5016131;28;20129;-79
2024/01/23 00:37:53;;;;;;;9.40;0.88;;;;;;;2.83;72.16;98715.00;5026825;28;20120;-78
2024/01/23 00:40:20;;;;;;;15.93;1.10;;;;;;;2.85;72.24;98722.72;5015891;28;20046;-79
2024/01/23 00:42:47;;;;;;;18.60;1.27;;;;;;;2.83;72.33;98715.84;5013301;28;20050;-79
2024/01/23 00:45:14;;;;;;;10.65;0.68;;;;;;;2.83;72.08;98718.41;5022079;28;20079;-79
2024/01/23 00:47:41;;;;;;;10.25;1.55;;;;;;;2.83;72.22;98730.50;5030198;28;20088;-79
2024/01/23 00:50:10;;;;;;;25.27;2.50;;;;;;;2.82;72.25;98729.66;5024233;28;20166;-78
2024/01/23 00:52:37;;;;;;;17.02;1.50;;;;;;;2.81;72.35;98740.88;5023116;28;20077;-77
2024/01/23 00:55:05;;;;;;;10.23;0.77;;;;;;;2.80;72.42;98744.31;5014744;28;20129;-77
2024/01/23 00:57:32;;;;;;;11.82;1.15;;;;;;;2.79;72.29;98754.72;5017173;28;20049;-78
2024/01/23 01:00:00;;;;;;;15.98;0.98;;;;;;;2.80;72.14;98770.16;5017423;28;20053;-73
2024/01/23 01:02:28;;;;;;;9.00;1.13;;;;;;;2.79;72.31;98763.28;5020099;28;20041;-73
2024/01/23 01:04:55;;;;;;;15.38;1.35;;;;;;;2.77;72.49;98759.88;5018909;28;20061;-73
2024/01/23 01:07:23;;;;;;;19.80;1.00;;;;;;;2.80;72.45;98767.56;5021489;28;20061;-73
2024/01/23 01:09:50;;;;;;;14.57;0.77;;;;;;;2.79;72.45;98758.13;5013956;28;20128;-73
2024/01/23 01:12:17;;;;;;;20.08;0.65;;;;;;;2.79;72.44;98749.53;5013247;28;20503;-73
2024/01/23 01:14:44;;;;;;;19.58;2.03;;;;;;;2.77;72.47;98746.97;5020243;28;20133;-73
2024/01/23 01:17:11;;;;;;;16.52;1.67;;;;;;;2.76;72.42;98750.47;5019963;28;20467;-74
2024/01/23 01:19:38;;;;;;;16.20;1.85;;;;;;;2.74;72.44;98752.22;5017535;28;20103;-73
2024/01/23 01:22:05;;;;;;;24.73;2.20;;;;;;;2.75;72.51;98761.66;5018424;28;20585;-73
2024/01/23 01:24:34;;;;;;;23.88;1.20;;;;;;;2.75;72.41;98758.22;5009777;28;20045;-73
2024/01/23 01:27:01;;;;;;;9.52;1.05;;;;;;;2.73;72.50;98765.16;5021242;28;20125;-74
2024/01/23 01:29:28;;;;;;;16.83;1.48;;;;;;;2.74;72.31;98759.97;5015344;28;20050;-73
2024/01/23 01:31:55;;;;;;;21.10;0.90;;;;;;;2.74;72.41;98772.88;5018932;28;20073;-73
2024/01/23 01:34:21;;;;;;;16.95;1.40;;;;;;;2.74;72.50;98766.88;5015699;28;20482;-73
2024/01/23 01:36:48;;;;;;;19.20;1.48;;;;;;;2.73;72.66;98771.19;5016180;28;20156;-73
2024/01/23 01:39:15;;;;;;;16.40;1.17;;;;;;;2.75;72.63;98776.31;5018327;28;20054;-73
2024/01/23 01:41:44;;;;;;;18.73;3.22;;;;;;;2.74;72.55;98762.53;5015900;28;21716;-73
2024/01/23 01:44:11;;;;;;;12.18;1.38;;;;;;;2.73;72.65;98780.66;5023638;28;20041;-73
2024/01/23 01:46:38;;;;;;;12.52;1.05;;;;;;;2.74;72.54;98766.88;5013140;28;20129;-73
2024/01/23 01:49:05;;;;;;;13.55;2.00;;;;;;;2.73;72.60;98775.47;5021178;28;20091;-73
2024/01/23 01:51:33;;;;;;;15.90;1.58;;;;;;;2.72;72.69;98768.63;5011693;28;20121;-73
2024/01/23 01:54:00;;;;;;;15.43;0.82;;;;;;;2.72;72.55;98772.06;5024196;28;20141;-73
2024/01/23 01:56:28;;;;;;;17.08;1.67;;;;;;;2.71;72.84;98765.19;5023149;28;20120;-73
2024/01/23 01:58:58;;;;;;;19.80;2.17;;;;;;;2.70;72.75;98771.25;5020472;28;20129;-76
2024/01/23 02:01:27;;;;;;;22.52;1.77;;;;;;;2.70;72.66;98773.84;5014470;28;20051;-73
2024/01/23 02:03:54;;;;;;;18.05;1.45;;;;;;;2.71;72.63;98777.28;5021420;28;20160;-72
2024/01/23 02:06:21;;;;;;;10.00;0.90;;;;;;;2.71;72.72;98785.84;5012467;28;20054;-73
2024/01/23 02:08:50;;;;;;;20.50;2.33;;;;;;;2.68;72.87;98790.25;5022281;28;20126;-73
2024/01/23 02:11:17;;;;;;;13.65;0.70;;;;;;;2.71;72.62;98791.03;5024633;28;20133;-77
2024/01/23 02:13:44;;;;;;;11.63;1.00;;;;;;;2.72;72.71;98781.53;5023537;28;20488;-77
2024/01/23 02:16:12;;;;;;;14.60;1.77;;;;;;;2.72;72.74;98784.97;5027213;28;20120;-76
2024/01/23 02:18:39;;;;;;;15.77;0.95;;;;;;;2.73;72.67;98784.09;5025306;28;20134;-77
2024/01/23 02:21:08;;;;;;;11.18;0.98;;;;;;;2.73;72.75;98788.38;5024517;28;20049;-77
2024/01/23 02:23:36;;;;;;;17.70;1.58;;;;;;;2.73;72.77;98784.09;5026237;28;20121;-76
2024/01/23 02:26:03;;;;;;;15.38;1.75;;;;;;;2.74;72.71;98787.53;5024551;28;20120;-77
2024/01/23 02:28:30;;;;;;;18.75;1.10;;;;;;;2.75;72.56;98789.22;5025041;28;20681;-77
2024/01/23 02:30:57;;;;;;;19.45;0.88;;;;;;;2.75;72.55;98781.47;5031021;28;20084;-77
2024/01/23 02:33:24;;;;;;;9.57;0.68;;;;;;;2.76;72.65;98791.78;5020754;28;20559;-77
2024/01/23 02:35:51;;;;;;;15.57;1.38;;;;;;;2.68;72.53;98785.94;5019146;28;20073;-77
2024/01/23 02:38:18;;;;;;;12.80;0.85;;;;;;;2.77;72.57;98792.63;5030852;28;20466;-77
2024/01/23 02:40:46;;;;;;;11.95;1.10;;;;;;;2.78;72.60;98799.47;5030561;28;20077;-78
2024/01/23 02:43:13;;;;;;;11.55;0.80;;;;;;;2.79;72.34;98796.03;5031154;28;20128;-76
2024/01/23 02:45:40;;;;;;;21.92;1.15;;;;;;;2.80;72.60;98798.56;5033771;28;20080;-76
2024/01/23 02:48:08;;;;;;;8.35;0.60;;;;;;;2.82;72.62;98808.88;5029640;28;20077;-77
2024/01/23 02:50:35;;;;;;;9.40;1.63;;;;;;;2.82;72.42;98809.72;5028346;28;20546;-77
2024/01/23 02:53:01;;;;;;;23.13;2.10;;;;;;;2.83;72.36;98816.56;5023408;28;20041;-76
2024/01/23 02:55:28;;;;;;;18.08;1.40;;;;;;;2.85;72.29;98818.28;5028405;28;20562;-76
2024/01/23 02:57:57;;;;;;;10.65;0.75;;;;;;;2.83;72.30;98808.81;5029463;28;20133;-76
2024/01/23 03:00:24;;;;;;;11.18;0.98;;;;;;;2.86;72.28;98814.81;5027234;28;20073;-76
2024/01/23 03:02:50;;;;;;;22.05;2.33;;;;;;;2.87;72.26;98814.78;5023894;28;20078;-76
2024/01/23 03:05:17;;;;;;;11.10;1.33;;;;;;;2.87;72.17;98803.56;5029240;28;20539;-77
2024/01/23 03:07:44;;;;;;;9.90;0.70;;;;;;;2.87;72.28;98796.69;5022962;28;20481;-77
2024/01/23 03:10:12;;;;;;;17.77;1.00;;;;;;;2.89;72.43;98817.31;5025176;28;20088;-73
2024/01/23 03:12:39;;;;;;;18.83;2.28;;;;;;;2.89;72.08;98812.16;5020346;28;20056;-73
2024/01/23 03:15:08;;;;;;;19.60;4.50;;;;;;;2.90;72.32;98821.59;5020329;28;20086;-73
2024/01/23 03:17:35;;;;;;;18.63;2.47;;;;;;;2.90;72.10;98813.84;5021121;28;20393;-72
2024/01/23 03:20:02;;;;;;;14.68;0.70;;;;;;;2.91;72.30;98810.38;5021172;28;20132;-76
2024/01/23 03:22:29;;;;;;;14.13;1.35;;;;;;;2.91;72.09;98812.97;5024653;28;20045;-77
2024/01/23 03:24:56;;;;;;;8.63;0.73;;;;;;;2.91;72.19;98811.22;5024494;28;20128;-77
2024/01/23 03:27:23;;;;;;;18.70;1.55;;;;;;;2.93;72.52;98796.56;5022261;28;21568;-78
2024/01/23 03:29:52;;;;;;;23.95;2.50;;;;;;;2.94;71.93;98794.81;5026284;28;20546;-78
2024/01/23 03:32:21;;;;;;;10.90;1.35;;;;;;;2.94;72.00;98795.66;5020138;28;20559;-78
2024/01/23 03:34:49;;;;;;;18.38;1.08;;;;;;;2.94;72.18;98780.16;5029222;28;20144;-77
2024/01/23 03:37:16;;;;;;;7.47;1.00;;;;;;;2.94;72.19;98794.81;5031924;28;20053;-77
2024/01/23 03:39:43;;;;;;;11.93;1.33;;;;;;;2.96;72.00;98787.88;5022189;28;20042;-78
2024/01/23 03:42:10;;;;;;;9.02;0.80;;;;;;;2.96;72.16;98795.63;5026252;28;20381;-78
2024/01/23 03:44:37;;;;;;;16.70;0.98;;;;;;;2.97;71.92;98805.06;5022842;28;20076;-77
2024/01/23 03:47:05;;;;;;;18.88;1.13;;;;;;;2.94;72.08;98799.97;5025643;28;20073;-78
2024/01/23 03:49:33;;;;;;;12.30;2.10;;;;;;;2.99;71.93;98813.66;5027335;28;20041;-77
2024/01/23 03:52:00;;;;;;;14.85;1.05;;;;;;;2.99;72.01;98813.66;5029164;28;20133;-77
2024/01/23 03:54:27;;;;;;;11.77;1.05;;;;;;;2.98;71.88;98797.28;5024864;28;20466;-77
2024/01/23 03:56:54;;;;;;;15.70;1.88;;;;;;;2.99;71.73;98796.41;5026996;28;20141;-77
2024/01/23 03:59:20;;;;;;;16.33;0.85;;;;;;;3.00;71.74;98794.66;5021888;28;20556;-78
2024/01/23 04:01:47;;;;;;;8.70;0.77;;;;;;;3.00;71.55;98792.09;5019361;28;20101;-78
2024/01/23 04:04:14;;;;;;;16.38;1.25;;;;;;;3.01;71.70;98786.03;5026932;28;20559;-78
2024/01/23 04:06:43;;;;;;;12.13;0.57;;;;;;;3.00;71.87;98781.75;5025424;28;20129;-77
2024/01/23 04:09:09;;;;;;;11.38;0.63;;;;;;;3.01;71.47;98779.16;5026022;28;20069;-77
2024/01/23 04:11:36;;;;;;;16.20;1.60;;;;;;;3.01;71.74;98779.16;5025480;28;20072;-77
2024/01/23 04:14:03;;;;;;;6.53;0.50;;;;;;;3.02;71.62;98778.25;5018923;28;20947;-78
2024/01/23 04:16:30;;;;;;;12.05;1.40;;;;;;;3.02;71.77;98782.56;5017232;28;20125;-77
2024/01/23 04:18:57;;;;;;;18.35;1.67;;;;;;;3.02;71.64;98780.84;5023540;28;20084;-77
2024/01/23 04:21:24;;;;;;;17.52;0.95;;;;;;;3.03;71.81;98789.44;5018626;28;20577;-74
2024/01/23 04:23:52;;;;;;;15.85;2.03;;;;;;;3.04;71.66;98811.78;5020878;28;20140;-74
2024/01/23 04:26:20;;;;;;;17.02;1.90;;;;;;;3.02;71.74;98821.31;5020669;28;20077;-74
2024/01/23 04:28:48;;;;;;;9.38;0.60;;;;;;;3.02;71.81;98813.56;5017928;28;20679;-73
2024/01/23 04:31:16;;;;;;;17.58;1.10;;;;;;;3.04;71.63;98822.13;5020026;28;20072;-74
2024/01/23 04:33:45;;;;;;;14.55;1.30;;;;;;;3.05;71.62;98813.50;5021227;28;20046;-74
2024/01/23 04:36:12;;;;;;;13.68;1.08;;;;;;;3.05;71.64;98808.34;5019281;28;20042;-74
2024/01/23 04:38:39;;;;;;;8.63;0.85;;;;;;;3.05;71.82;98808.34;5019454;28;20129;-74
2024/01/23 04:41:07;;;;;;;15.43;0.77;;;;;;;3.05;71.59;98795.41;5021700;28;20132;-74
2024/01/23 04:43:34;;;;;;;11.27;0.68;;;;;;;3.05;71.62;98805.75;5019452;28;20133;-73
2024/01/23 04:46:01;;;;;;;16.98;1.13;;;;;;;3.06;71.69;98807.44;5019717;28;20089;-73
2024/01/23 04:48:29;;;;;;;13.50;0.82;;;;;;;3.06;71.66;98807.44;5017854;28;20129;-74
2024/01/23 04:50:56;;;;;;;11.68;0.88;;;;;;;3.06;71.62;98800.53;5017486;28;20160;-74
2024/01/23 04:53:27;;;;;;;13.93;0.85;;;;;;;3.06;71.63;98790.19;5017317;28;20555;-74
2024/01/23 04:55:54;;;;;;;13.75;0.88;;;;;;;3.06;71.62;98804.84;5015283;28;20526;-73
2024/01/23 04:58:22;;;;;;;10.27;1.15;;;;;;;3.05;71.59;98787.66;5020158;28;20145;-74
2024/01/23 05:00:49;;;;;;;17.40;1.48;;;;;;;3.09;71.46;98788.44;5017100;28;20077;-73
2024/01/23 05:03:16;;;;;;;12.23;1.13;;;;;;;3.08;71.65;98795.34;5020982;28;20136;-74
2024/01/23 05:05:43;;;;;;;14.60;1.15;;;;;;;3.08;71.43;98797.09;5015062;28;21738;-74
2024/01/23 05:08:10;;;;;;;12.65;1.50;;;;;;;3.07;71.45;98806.56;5019888;28;20130;-76
2024/01/23 05:10:38;;;;;;;12.77;1.10;;;;;;;3.08;71.41;98813.44;5023709;28;20478;-74
2024/01/23 05:13:05;;;;;;;20.40;1.52;;;;;;;3.06;71.99;98825.53;5026156;28;20403;-73
2024/01/23 05:15:33;;;;;;;12.43;2.17;;;;;;;3.08;71.46;98805.69;5020433;28;20136;-74
2024/01/23 05:18:00;;;;;;;16.02;1.23;;;;;;;3.08;71.27;98808.25;5024287;28;20128;-73
2024/01/23 05:20:28;;;;;;;11.70;1.10;;;;;;;3.09;71.42;98809.09;5021709;28;20408;-75
2024/01/23 05:22:55;;;;;;;9.30;0.80;;;;;;;3.09;71.50;98822.88;5022658;28;20049;-74
2024/01/23 05:25:24;;;;;;;15.60;2.00;;;;;;;3.09;71.47;98815.13;5024585;28;20487;-74
2024/01/23 05:27:51;;;;;;;12.77;1.27;;;;;;;3.08;71.35;98813.44;5019703;28;20053;-73
2024/01/23 05:30:18;;;;;;;13.38;1.02;;;;;;;3.09;71.33;98822.88;5024233;28;20132;-78
2024/01/23 05:32:46;;;;;;;6.45;0.55;;;;;;;3.09;71.36;98824.59;5026284;28;20491;-76
2024/01/23 05:35:13;;;;;;;11.98;0.90;;;;;;;3.08;71.30;98823.75;5021876;28;20179;-76
2024/01/23 05:37:40;;;;;;;13.93;1.13;;;;;;;3.08;71.41;98823.75;5021140;28;20132;-76
2024/01/23 05:40:11;;;;;;;18.58;1.52;;;;;;;3.08;71.27;98823.75;5024597;28;20474;-80
2024/01/23 05:42:38;;;;;;;11.95;0.77;;;;;;;3.06;71.28;98826.38;5017335;28;20056;-78
2024/01/23 05:45:06;;;;;;;12.77;0.85;;;;;;;3.08;71.41;98844.44;5023341;28;20552;-77
2024/01/23 05:47:33;;;;;;;10.45;0.80;;;;;;;3.06;71.25;98841.88;5026450;28;20041;-78
2024/01/23 05:50:02;;;;;;;14.43;2.10;;;;;;;3.08;71.19;98841.84;5032910;28;20463;-78
2024/01/23 05:52:29;;;;;;;13.10;0.60;;;;;;;3.07;71.43;98853.06;5025298;28;20053;-78
2024/01/23 05:54:56;;;;;;;15.00;0.60;;;;;;;3.04;71.25;98851.41;5031144;28;20073;-78
2024/01/23 05:57:23;;;;;;;13.27;0.65;;;;;;;3.06;71.39;98859.94;5021042;28;20555;-77
2024/01/23 05:59:50;;;;;;;8.35;0.63;;;;;;;3.06;71.60;98853.94;5032102;28;20038;-78
2024/01/23 06:02:17;;;;;;;15.43;0.80;;;;;;;3.08;71.50;98849.59;5015319;28;20081;-78
2024/01/23 06:04:44;;;;;;;13.02;0.60;;;;;;;3.06;71.36;98834.13;5026539;28;20196;-77
2024/01/23 06:07:12;;;;;;;20.63;3.42;;;;;;;3.07;71.33;98842.75;5015187;28;20544;-78
2024/01/23 06:09:39;;;;;;;7.50;0.60;;;;;;;3.06;71.35;98841.88;5024239;28;20404;-78
2024/01/23 06:12:06;;;;;;;5.75;0.50;;;;;;;3.07;71.36;98853.06;5028071;28;20077;-78
2024/01/23 06:14:32;;;;;;;12.20;1.40;;;;;;;3.06;71.40;98851.34;5024265;28;20042;-78
2024/01/23 06:16:59;;;;;;;15.07;0.90;;;;;;;3.03;71.28;98847.09;5026481;28;20124;-78
2024/01/23 06:19:26;;;;;;;10.40;0.90;;;;;;;3.03;71.42;98851.44;5020541;28;20082;-79
2024/01/23 06:21:53;;;;;;;10.55;0.80;;;;;;;3.06;71.46;98872.03;5029206;28;20125;-79
2024/01/23 06:24:22;;;;;;;13.02;1.13;;;;;;;3.05;71.37;98876.34;5032661;28;20099;-78
2024/01/23 06:26:49;;;;;;;14.95;0.80;;;;;;;3.04;71.25;98869.50;5033644;28;20136;-79
2024/01/23 06:29:16;;;;;;;10.13;1.05;;;;;;;3.05;71.33;98863.44;5026053;28;20060;-79
2024/01/23 06:31:43;;;;;;;11.40;1.02;;;;;;;3.04;71.27;98877.25;5024953;28;20470;-78
2024/01/23 06:34:10;;;;;;;8.93;1.05;;;;;;;3.06;71.39;98879.78;5027545;28;20057;-79
2024/01/23 06:36:38;;;;;;;10.85;0.50;;;;;;;3.04;71.48;98895.34;5023236;28;20095;-77
2024/01/23 06:39:05;;;;;;;14.13;0.88;;;;;;;3.05;71.38;98903.94;5021825;28;20046;-77
2024/01/23 06:41:33;;;;;;;9.73;0.73;;;;;;;3.05;71.37;98901.34;5023121;28;20180;-73
2024/01/23 06:44:00;;;;;;;8.23;1.77;;;;;;;3.05;71.37;98901.34;5019706;28;20132;-72
2024/01/23 06:46:27;;;;;;;14.85;0.77;;;;;;;3.04;71.29;98909.97;5020776;28;20176;-73
2024/01/23 06:48:54;;;;;;;20.20;1.63;;;;;;;3.05;71.42;98912.53;5022223;28;20096;-73
2024/01/23 06:51:22;;;;;;;15.10;0.85;;;;;;;3.05;71.51;98912.53;5018344;28;20132;-73
2024/01/23 06:53:49;;;;;;;11.75;1.15;;;;;;;3.05;71.32;98898.75;5020677;28;20056;-74
2024/01/23 06:56:16;;;;;;;16.38;1.23;;;;;;;3.05;71.37;98906.50;5021958;28;20136;-74
2024/01/23 06:58:44;;;;;;;17.98;1.23;;;;;;;3.03;71.26;98909.13;5021135;28;20121;-73
2024/01/23 07:01:11;;;;;;;16.13;1.50;;;;;;;3.03;71.39;98916.88;5017556;28;20448;-74
2024/01/23 07:03:38;;;;;;;9.68;1.35;;;;;;;3.04;71.36;98905.66;5019359;28;20121;-73
2024/01/23 07:06:06;;;;;;;16.45;1.90;;;;;;;3.04;71.38;98922.88;5017657;28;20153;-74
2024/01/23 07:08:33;;;;;;;10.70;0.98;;;;;;;3.03;71.42;98924.63;5018516;28;20077;-73
2024/01/23 07:11:00;;;;;;;8.02;0.60;;;;;;;3.05;71.33;98937.50;5017408;28;20129;-73
2024/01/23 07:13:26;;;;;;;10.02;0.75;;;;;;;3.05;71.20;98937.50;5020741;28;20467;-74
2024/01/23 07:15:55;;;;;;;11.75;0.85;;;;;;;3.05;71.25;98925.44;5021031;28;20136;-73
2024/01/23 07:18:22;;;;;;;8.90;0.60;;;;;;;3.05;71.29;98922.84;5018949;28;20137;-74
2024/01/23 07:20:49;;;;;;;16.27;1.02;;;;;;;2.94;71.27;98901.56;5021029;28;20774;-73
2024/01/23 07:23:15;;;;;;;13.82;1.15;;;;;;;3.08;71.12;98916.78;5021942;28;20077;-73
2024/01/23 07:25:42;;;;;;;15.07;0.65;;;;;;;3.06;71.18;98919.38;5015222;28;20125;-74
2024/01/23 07:28:09;;;;;;;13.35;0.98;;;;;;;3.08;71.46;98921.94;5021884;28;20056;-74
2024/01/23 07:30:36;;;;;;;9.48;1.10;;;;;;;3.07;71.26;98920.25;5017343;28;20076;-74
2024/01/23 07:33:05;;;;;;;9.93;0.68;;;;;;;3.05;71.16;98922.00;5017155;28;20132;-74
2024/01/23 07:35:32;;;;;;;8.57;1.42;;;;;;;3.09;71.34;98944.31;5020611;28;20173;-74
2024/01/23 07:37:59;;;;;;;11.98;0.60;;;;;;;3.09;71.26;98946.03;5019458;28;20145;-74
2024/01/23 07:40:26;;;;;;;13.55;0.60;;;;;;;3.09;71.25;98939.13;5022463;28;20049;-75
2024/01/23 07:42:52;;;;;;;13.00;0.60;;;;;;;3.10;71.33;98943.44;5021480;28;20540;-74
2024/01/23 07:45:19;;;;;;;7.95;0.80;;;;;;;3.10;71.18;98948.59;5016660;28;20077;-74
2024/01/23 07:47:47;;;;;;;7.53;1.05;;;;;;;3.11;71.29;98946.88;5018673;28;20122;-73
2024/01/23 07:50:15;;;;;;;18.08;1.33;;;;;;;3.11;70.96;98958.03;5018621;28;20046;-73
2024/01/23 07:52:42;;;;;;;10.60;0.60;;;;;;;3.12;71.07;98964.06;5020560;28;20141;-74
2024/01/23 07:55:09;;;;;;;16.55;1.42;;;;;;;3.10;71.08;98958.94;5018324;28;20493;-74
2024/01/23 07:57:36;;;;;;;6.22;0.60;;;;;;;3.13;71.28;98965.78;5020214;28;20065;-75
2024/01/23 08:00:03;;;;;;;18.45;0.80;;;;;;;3.13;71.24;98966.63;5017597;28;20140;-75
2024/01/23 08:02:30;;;;;;;13.10;0.80;;;;;;;3.14;71.27;98975.22;5015112;28;20132;-75
2024/01/23 08:04:57;;;;;;;21.63;1.92;;;;;;;3.14;71.01;98989.00;5018873;28;20050;-75
2024/01/23 08:07:26;;;;;;;14.25;1.15;;;;;;;3.15;71.01;98987.25;5021209;28;20124;-75
2024/01/23 08:09:53;;;;;;;6.50;0.82;;;;;;;3.16;71.01;98997.56;5017821;28;20137;-75
2024/01/23 08:12:21;;;;;;;12.32;1.38;;;;;;;3.16;71.11;98997.56;5020052;28;20694;-75
2024/01/23 08:14:48;;;;;;;12.68;1.20;;;;;;;3.16;71.17;98988.97;5021184;28;20061;-75
2024/01/23 08:17:15;;;;;;;17.15;1.58;;;;;;;3.19;71.04;99010.44;5020066;28;20480;-75
2024/01/23 08:19:42;;;;;;;11.93;1.17;;;;;;;3.18;71.07;98998.38;5019248;28;20120;-75
2024/01/23 08:22:09;;;;;;;12.07;0.65;;;;;;;3.19;70.95;98992.34;5020263;28;20555;-75
2024/01/23 08:24:38;;;;;;;20.30;1.02;;;;;;;3.20;71.00;99006.94;5020834;28;20133;-75
2024/01/23 08:27:05;;;;;;;13.57;2.45;;;;;;;3.22;70.92;99001.75;5022673;28;20511;-75
2024/01/23 08:29:32;;;;;;;12.07;1.00;;;;;;;3.22;70.69;99004.34;5019249;28;20133;-75
2024/01/23 08:31:59;;;;;;;14.93;0.85;;;;;;;3.24;70.65;98999.97;5017383;28;20054;-75
2024/01/23 08:34:26;;;;;;;15.63;1.95;;;;;;;3.24;70.73;99003.44;5013367;28;20763;-75
2024/01/23 08:36:53;;;;;;;9.65;0.98;;;;;;;3.25;70.73;99012.03;5019847;28;20125;-75
2024/01/23 08:39:19;;;;;;;8.65;0.63;;;;;;;3.25;70.95;98999.94;5020394;28;20085;-75
2024/01/23 08:41:47;;;;;;;14.68;0.95;;;;;;;3.26;70.76;99008.56;5021618;28;20162;-75
2024/01/23 08:44:14;;;;;;;20.80;1.67;;;;;;;3.28;70.84;99007.63;5022777;28;20730;-75
2024/01/23 08:46:41;;;;;;;14.00;1.00;;;;;;;3.28;70.64;99007.63;5021286;28;20128;-75
2024/01/23 08:49:08;;;;;;;12.88;1.20;;;;;;;3.29;70.67;99004.16;5026833;28;20128;-76
2024/01/23 08:51:35;;;;;;;19.67;2.17;;;;;;;3.31;70.67;99000.72;5021857;28;20782;-75
2024/01/23 08:54:02;;;;;;;16.50;1.20;;;;;;;3.32;70.60;99002.41;5024317;28;20077;-75
2024/01/23 08:56:29;;;;;;;8.48;1.40;;;;;;;3.33;70.71;99004.13;5023085;28;20096;-76
2024/01/23 08:58:57;;;;;;;7.63;1.35;;;;;;;3.34;70.70;99008.41;5020354;28;20092;-75
2024/01/23 09:01:24;;;;;;;17.75;2.35;;;;;;;3.35;70.54;98999.75;5027711;28;20528;-79
2024/01/23 09:03:51;;;;;;;14.75;0.90;;;;;;;3.36;70.60;99019.56;5026460;28;20552;-79
2024/01/23 09:06:18;;;;;;;13.77;1.08;;;;;;;3.37;70.68;99010.91;5027955;28;20092;-79
2024/01/23 09:08:45;;;;;;;12.95;0.90;;;;;;;3.38;70.62;99017.78;5015227;28;20446;-79
2024/01/23 09:11:12;;;;;;;10.60;1.67;;;;;;;3.38;70.72;99023.78;5019684;28;20125;-73
2024/01/23 09:13:39;;;;;;;15.25;0.95;;;;;;;3.39;70.33;99014.31;5020118;28;20128;-74
2024/01/23 09:16:08;;;;;;;11.88;0.57;;;;;;;3.42;70.84;99022.00;5021055;28;20076;-73
2024/01/23 09:18:35;;;;;;;11.07;1.73;;;;;;;3.41;70.79;99013.41;5022294;28;20144;-73
2024/01/23 09:21:03;;;;;;;13.30;1.48;;;;;;;3.43;70.53;99015.94;5024722;28;20041;-73
2024/01/23 09:23:30;;;;;;;8.80;1.00;;;;;;;3.43;70.50;99018.53;5022560;28;20435;-73
2024/01/23 09:25:57;;;;;;;11.88;0.75;;;;;;;3.45;70.52;99025.38;5020254;28;20057;-73
2024/01/23 09:28:24;;;;;;;10.55;0.90;;;;;;;3.45;70.42;99024.53;5024298;28;20053;-73
2024/01/23 09:30:51;;;;;;;17.92;0.70;;;;;;;3.48;70.19;99030.47;5022777;28;20126;-73
2024/01/23 09:33:19;;;;;;;22.10;1.67;;;;;;;3.51;70.52;99032.16;5020353;28;20074;-73
2024/01/23 09:35:48;;;;;;;10.00;1.00;;;;;;;3.52;70.39;99033.84;5023660;28;20049;-73
2024/01/23 09:38:15;;;;;;;12.30;1.55;;;;;;;3.53;70.15;99035.56;5023816;28;20045;-73
2024/01/23 09:40:42;;;;;;;13.88;1.85;;;;;;;3.54;70.31;99037.25;5018437;28;20069;-73
2024/01/23 09:43:12;;;;;;;16.77;1.08;;;;;;;3.57;70.43;99039.75;5023002;28;20134;-73
2024/01/23 09:45:41;;;;;;;15.98;0.82;;;;;;;3.58;70.34;99051.84;5022090;28;20050;-73
2024/01/23 09:48:09;;;;;;;15.48;1.90;;;;;;;3.59;70.38;99048.34;5020683;28;20161;-73
2024/01/23 09:50:42;;;;;;;14.50;0.60;;;;;;;3.60;70.38;99047.47;5020164;28;20556;-74
2024/01/23 09:53:11;;;;;;;12.38;1.20;;;;;;;3.62;70.27;99029.34;5022737;28;20049;-73
2024/01/23 09:55:38;;;;;;;11.73;0.75;;;;;;;3.63;70.13;99034.44;5022230;28;20076;-73
2024/01/23 09:58:07;;;;;;;9.70;0.80;;;;;;;3.64;70.39;99031.00;5019105;28;20124;-73
2024/01/23 10:00:35;;;;;;;16.67;0.80;;;;;;;3.67;70.40;99041.28;5023590;28;20075;-74
2024/01/23 10:03:05;;;;;;;11.55;0.77;;;;;;;3.68;70.28;99042.97;5024003;28;20195;-73
2024/01/23 10:05:32;;;;;;;20.33;0.85;;;;;;;3.70;70.14;99050.72;5021193;28;20132;-73
2024/01/23 10:08:00;;;;;;;11.73;1.05;;;;;;;3.72;70.17;99057.56;5023185;28;20614;-73
2024/01/23 10:10:27;;;;;;;9.88;1.08;;;;;;;3.74;70.30;99062.66;5022256;28;20136;-74
2024/01/23 10:12:54;;;;;;;13.77;1.42;;;;;;;3.74;70.03;99057.50;5023124;28;20056;-73
2024/01/23 10:15:22;;;;;;;9.77;0.77;;;;;;;3.77;70.03;99069.53;5021239;28;20132;-74
2024/01/23 10:17:50;;;;;;;13.65;1.35;;;;;;;3.78;70.00;99064.31;5021314;28;20156;-74
2024/01/23 10:20:18;;;;;;;9.73;1.85;;;;;;;3.78;70.31;99068.63;5021680;28;20190;-73
2024/01/23 10:22:45;;;;;;;12.32;1.30;;;;;;;3.81;70.02;99068.56;5021024;28;20046;-73
2024/01/23 10:25:19;;;;;;;15.27;1.33;;;;;;;3.79;70.25;99065.16;5020026;28;20125;-74
2024/01/23 10:27:45;;;;;;;16.05;1.73;;;;;;;3.84;70.10;99078.81;5020656;28;20124;-74
2024/01/23 10:30:13;;;;;;;9.30;0.60;;;;;;;3.84;69.84;99084.88;5023893;28;20140;-73
2024/01/23 10:32:42;;;;;;;14.00;0.60;;;;;;;3.85;69.96;99091.75;5017262;28;20076;-72
2024/01/23 10:35:12;;;;;;;16.20;1.75;;;;;;;3.86;69.86;99092.59;5017724;28;20083;-73
2024/01/23 10:37:40;;;;;;;14.93;1.35;;;;;;;3.88;70.07;99096.00;5018921;28;20132;-73
2024/01/23 10:40:11;;;;;;;12.40;0.50;;;;;;;3.88;69.79;99096.00;5021770;28;20049;-73
2024/01/23 10:42:40;;;;;;;26.70;1.70;;;;;;;3.90;70.01;99092.50;5022514;28;20416;-73
2024/01/23 10:45:11;;;;;;;15.73;1.73;;;;;;;3.90;69.91;99092.50;5019330;28;20931;-73
2024/01/23 10:47:38;;;;;;;12.50;1.17;;;;;;;3.91;69.88;99088.16;5017679;28;20712;-73
2024/01/23 10:50:06;;;;;;;12.75;0.73;;;;;;;3.93;69.84;99087.25;5021229;28;20052;-73
2024/01/23 10:52:39;;;;;;;12.32;0.63;;;;;;;3.95;69.89;99087.19;5020593;28;20114;-74
2024/01/23 10:55:07;;;;;;;8.95;1.08;;;;;;;3.96;69.71;99094.09;5012956;28;20108;-73
2024/01/23 10:57:37;;;;;;;15.68;2.25;;;;;;;3.98;69.83;99102.69;5019835;28;20136;-73
2024/01/23 11:00:10;;;;;;;13.55;0.70;;;;;;;3.99;69.85;99101.78;5021538;28;20595;-73
2024/01/23 11:02:40;;;;;;;5.60;0.45;;;;;;;4.01;69.78;99112.09;5020411;28;20579;-73
2024/01/23 11:05:07;;;;;;;8.48;0.93;;;;;;;4.02;69.65;99112.06;5017299;28;20045;-74
2024/01/23 11:07:41;;;;;;;14.98;1.38;;;;;;;4.02;69.80;99114.66;5017605;28;20152;-74
2024/01/23 11:10:24;;;;;;;14.57;1.10;;;;;;;4.03;69.72;99108.59;5020705;28;20076;-74
2024/01/23 11:13:03;;;;;;;13.10;1.25;;;;;;;4.04;69.69;99115.47;5021243;28;20590;-73
2024/01/23 11:15:32;;;;;;;15.63;0.90;;;;;;;4.06;69.84;99120.59;5017661;28;20065;-74
2024/01/23 11:18:22;;;;;;;14.57;0.82;;;;;;;4.05;69.69;99114.59;5019524;28;20093;-73
2024/01/23 11:21:11;;;;;;;16.42;1.15;;;;;;;4.06;69.79;99118.88;5019046;28;20125;-73
2024/01/23 11:23:39;;;;;;;11.15;1.13;;;;;;;4.07;69.68;99114.56;5017035;28;20042;-73
2024/01/23 11:26:12;;;;;;;10.38;0.50;;;;;;;4.07;69.83;99105.06;5021813;28;20136;-74
2024/01/23 11:28:39;;;;;;;6.30;0.82;;;;;;;4.08;69.61;99108.50;5023993;28;20053;-73
2024/01/23 11:31:09;;;;;;;19.08;2.55;;;;;;;4.07;70.00;99112.81;5024243;28;20129;-79
2024/01/23 11:33:36;;;;;;;18.10;1.58;;;;;;;4.07;69.47;99122.31;5018781;28;20128;-79
2024/01/23 11:36:10;;;;;;;11.82;0.93;;;;;;;4.08;69.83;99127.44;5024047;28;20129;-79